FE Warren AFB, Wyoming
Current Conditions -  °F | °C
As of 1:56 PM on Friday 19 Dec 2014 (Local Time) from KFEW Reporting Station
Clear Clear  
Wind Chill: 26°   Ceiling: Unl
Heat Index: 38°   Visibility: 10mi
Dew Point: 13°   Wind: 30mph
Humidity: 35%   Direction: 290°WNW
Pressure: 29.95"   Gusts: 43mph
Location:  41.139°N, 104.862°W
Report Text: KFEW 192056Z 29026G37KT 10SM CLR 04/M10 A2995 RMK AO2A SLP169 T00361105 57016 $
Loading
Personal Weather Stations






























Interactive Weather Map New forecast layout! Learn more

10-Day Weather Forecast

Advertisements
Track Severe Weather on mobile